Time;durP1;ratioP1;P1;durP2;ratioP2;P2;SDS_P1;SDS_P2;PMS_P1;PMS_P2;Temp;Humidity;BMP_temperature;BMP_pressure;BME280_temperature;BME280_humidity;BME280_pressure;Samples;Min_cycle;Max_cycle;Signal;HPM_P1;HPM_P2
2023/06/11 00:00:11;;;;;;;8.60;6.40;;;;;;;;;;5061174;28;25106;-72
2023/06/11 00:02:39;;;;;;;10.23;6.05;;;;;;;;;;5056290;28;25067;-72
2023/06/11 00:05:07;;;;;;;12.23;5.85;;;;;;;;;;5057228;28;25062;-71
2023/06/11 00:07:34;;;;;;;10.45;5.95;;;;;;;;;;5055095;28;25055;-71
2023/06/11 00:10:00;;;;;;;10.60;6.75;;;;;;;;;;5057696;28;25070;-70
2023/06/11 00:12:26;;;;;;;9.38;6.50;;;;;;;;;;5056569;28;25085;-69
2023/06/11 00:14:52;;;;;;;9.30;6.28;;;;;;;;;;5056189;28;25057;-70
2023/06/11 00:17:18;;;;;;;8.18;5.53;;;;;;;;;;5054982;28;25098;-71
2023/06/11 00:19:45;;;;;;;9.82;5.68;;;;;;;;;;5057493;28;25068;-71
2023/06/11 00:22:14;;;;;;;12.13;6.53;;;;;;;;;;5056521;28;25064;-71
2023/06/11 00:24:40;;;;;;;10.68;6.60;;;;;;;;;;5046174;28;25075;-70
2023/06/11 00:27:06;;;;;;;10.38;6.00;;;;;;;;;;5057591;28;25138;-70
2023/06/11 00:29:32;;;;;;;8.43;5.63;;;;;;;;;;5057796;28;25059;-71
2023/06/11 00:31:58;;;;;;;9.73;5.93;;;;;;;;;;5058014;28;25049;-71
2023/06/11 00:34:25;;;;;;;9.95;6.50;;;;;;;;;;5054960;28;25145;-70
2023/06/11 00:36:52;;;;;;;10.98;6.70;;;;;;;;;;5057090;28;25068;-71
2023/06/11 00:39:18;;;;;;;10.52;6.25;;;;;;;;;;5054179;28;25077;-70
2023/06/11 00:41:45;;;;;;;8.25;5.95;;;;;;;;;;5024603;28;25145;-70
2023/06/11 00:44:17;;;;;;;14.00;5.90;;;;;;;;;;5035261;28;25084;-71
2023/06/11 00:46:43;;;;;;;;;;;;;;;;;;5038079;28;25066;-70
2023/06/11 00:49:11;;;;;;;8.50;5.80;;;;;;;;;;5035693;28;25079;-71
2023/06/11 00:51:37;;;;;;;10.38;6.90;;;;;;;;;;5037933;28;25057;-72
2023/06/11 00:54:03;;;;;;;13.00;6.03;;;;;;;;;;5034569;28;25125;-71
2023/06/11 00:56:29;;;;;;;11.40;6.57;;;;;;;;;;5039567;28;25085;-70
2023/06/11 00:58:55;;;;;;;13.07;6.22;;;;;;;;;;5035675;28;25067;-72
2023/06/11 01:01:29;;;;;;;8.95;6.47;;;;;;;;;;5035725;28;25113;-71
2023/06/11 01:04:00;;;;;;;11.07;6.40;;;;;;;;;;5040643;28;25067;-71
2023/06/11 01:06:28;;;;;;;10.60;6.45;;;;;;;;;;5035777;28;25080;-71
2023/06/11 01:08:57;;;;;;;13.23;6.43;;;;;;;;;;5039992;28;25075;-71
2023/06/11 01:11:23;;;;;;;9.23;6.55;;;;;;;;;;5039253;28;25065;-71
2023/06/11 01:13:51;;;;;;;15.60;7.07;;;;;;;;;;5040940;28;25075;-72
2023/06/11 01:16:25;;;;;;;10.35;7.35;;;;;;;;;;5045735;28;25081;-71
2023/06/11 01:18:58;;;;;;;14.63;6.80;;;;;;;;;;5057010;28;25078;-71
2023/06/11 01:21:29;;;;;;;9.93;7.05;;;;;;;;;;5039413;28;25093;-71
2023/06/11 01:24:13;;;;;;;15.48;7.80;;;;;;;;;;5059183;28;25081;-72
2023/06/11 01:26:58;;;;;;;9.75;6.63;;;;;;;;;;5058723;28;25139;-72
2023/06/11 01:29:26;;;;;;;10.18;6.85;;;;;;;;;;5058116;28;25107;-71
2023/06/11 01:31:53;;;;;;;9.35;6.25;;;;;;;;;;5059297;28;25064;-71
2023/06/11 01:34:19;;;;;;;14.98;6.50;;;;;;;;;;5058429;28;25085;-71
2023/06/11 01:36:45;;;;;;;11.15;6.90;;;;;;;;;;5058737;28;25158;-73
2023/06/11 01:39:12;;;;;;;14.73;7.15;;;;;;;;;;5059479;28;25054;-71
2023/06/11 01:41:38;;;;;;;10.35;7.00;;;;;;;;;;5057685;28;25151;-71
2023/06/11 01:44:05;;;;;;;12.52;7.75;;;;;;;;;;5056211;28;25137;-70
2023/06/11 01:46:32;;;;;;;13.00;6.28;;;;;;;;;;5059844;28;25124;-72
2023/06/11 01:48:57;;;;;;;11.50;7.22;;;;;;;;;;5057561;28;25068;-72
2023/06/11 01:51:24;;;;;;;9.50;6.68;;;;;;;;;;5058783;28;25073;-70
2023/06/11 01:53:51;;;;;;;9.65;7.45;;;;;;;;;;5057551;28;25055;-71
2023/06/11 01:56:17;;;;;;;9.52;7.10;;;;;;;;;;5057029;28;25071;-72
2023/06/11 01:58:45;;;;;;;9.57;6.40;;;;;;;;;;5056274;28;25053;-70
2023/06/11 02:01:12;;;;;;;12.30;6.55;;;;;;;;;;5058386;28;25078;-72
2023/06/11 02:03:37;;;;;;;9.68;6.95;;;;;;;;;;5057498;28;25080;-74
2023/06/11 02:06:03;;;;;;;12.63;7.80;;;;;;;;;;5057530;28;25062;-71
2023/06/11 02:08:29;;;;;;;8.95;7.13;;;;;;;;;;5059597;28;25117;-72
2023/06/11 02:10:55;;;;;;;12.75;6.47;;;;;;;;;;5059990;28;25053;-69
2023/06/11 02:13:21;;;;;;;11.57;7.10;;;;;;;;;;5056263;28;25096;-72
2023/06/11 02:15:47;;;;;;;8.57;6.82;;;;;;;;;;5059464;28;25326;-71
2023/06/11 02:18:13;;;;;;;14.60;7.90;;;;;;;;;;5041276;28;25068;-71
2023/06/11 02:20:39;;;;;;;10.18;7.18;;;;;;;;;;5058952;28;25049;-72
2023/06/11 02:23:05;;;;;;;11.70;7.40;;;;;;;;;;5054240;28;25052;-71
2023/06/11 02:25:31;;;;;;;9.27;7.57;;;;;;;;;;5056951;28;25069;-70
2023/06/11 02:27:57;;;;;;;10.93;7.00;;;;;;;;;;5056576;28;25071;-70
2023/06/11 02:30:23;;;;;;;10.48;6.90;;;;;;;;;;5057757;28;24872;-72
2023/06/11 02:32:49;;;;;;;9.48;7.30;;;;;;;;;;5056546;28;25055;-72
2023/06/11 02:35:15;;;;;;;14.43;7.55;;;;;;;;;;5057205;28;25069;-71
2023/06/11 02:37:41;;;;;;;13.43;7.53;;;;;;;;;;5056197;28;25112;-72
2023/06/11 02:40:07;;;;;;;10.15;7.15;;;;;;;;;;5057888;28;25095;-71
2023/06/11 02:42:33;;;;;;;11.65;7.60;;;;;;;;;;5060814;28;25063;-71
2023/06/11 02:44:59;;;;;;;11.65;7.72;;;;;;;;;;5056676;28;25072;-71
2023/06/11 02:47:25;;;;;;;10.48;7.80;;;;;;;;;;5055781;28;25071;-72
2023/06/11 02:49:51;;;;;;;11.13;6.85;;;;;;;;;;5058769;28;25068;-71
2023/06/11 02:52:17;;;;;;;9.25;7.03;;;;;;;;;;5055799;28;25122;-71
2023/06/11 02:54:43;;;;;;;10.25;7.43;;;;;;;;;;5056663;28;25054;-72
2023/06/11 02:57:09;;;;;;;11.25;7.72;;;;;;;;;;5054693;28;25071;-70
2023/06/11 02:59:35;;;;;;;11.68;7.50;;;;;;;;;;5058887;28;25137;-71
2023/06/11 03:02:01;;;;;;;11.50;8.10;;;;;;;;;;5057770;28;25121;-70
2023/06/11 03:04:27;;;;;;;12.25;7.30;;;;;;;;;;5057551;28;25129;-71
2023/06/11 03:06:55;;;;;;;19.67;8.43;;;;;;;;;;5055543;28;25087;-72
2023/06/11 03:09:23;;;;;;;10.60;7.68;;;;;;;;;;5054942;28;25069;-70
2023/06/11 03:11:49;;;;;;;11.30;7.57;;;;;;;;;;5057203;28;25048;-71
2023/06/11 03:14:16;;;;;;;10.48;7.95;;;;;;;;;;5054803;28;25055;-71
2023/06/11 03:16:42;;;;;;;8.55;6.47;;;;;;;;;;5057954;28;25070;-72
2023/06/11 03:19:08;;;;;;;8.93;7.57;;;;;;;;;;5056273;28;25067;-70
2023/06/11 03:21:34;;;;;;;14.65;8.32;;;;;;;;;;5058137;28;25089;-70
2023/06/11 03:23:59;;;;;;;13.75;8.23;;;;;;;;;;5056745;28;25083;-72
2023/06/11 03:26:25;;;;;;;12.95;8.60;;;;;;;;;;5061700;28;25065;-71
2023/06/11 03:28:51;;;;;;;14.73;8.27;;;;;;;;;;5041670;28;25079;-71
2023/06/11 03:31:17;;;;;;;13.23;7.45;;;;;;;;;;5057273;28;25120;-71
2023/06/11 03:33:43;;;;;;;13.93;8.43;;;;;;;;;;5057313;28;25073;-71
2023/06/11 03:36:10;;;;;;;11.75;7.95;;;;;;;;;;5056356;28;25073;-71
2023/06/11 03:38:36;;;;;;;10.57;7.70;;;;;;;;;;5056416;28;25133;-71
2023/06/11 03:41:02;;;;;;;12.70;8.07;;;;;;;;;;5042394;28;25075;-72
2023/06/11 03:43:28;;;;;;;10.20;7.53;;;;;;;;;;5056967;28;25053;-71
2023/06/11 03:45:54;;;;;;;11.98;8.18;;;;;;;;;;5060285;28;25081;-70
2023/06/11 03:48:20;;;;;;;11.85;8.52;;;;;;;;;;5060882;28;25090;-71
2023/06/11 03:50:46;;;;;;;11.02;8.50;;;;;;;;;;5054026;28;25037;-70
2023/06/11 03:53:12;;;;;;;10.75;8.52;;;;;;;;;;5054576;28;25102;-73
2023/06/11 03:55:38;;;;;;;12.77;8.18;;;;;;;;;;5058031;28;25076;-70
2023/06/11 03:58:04;;;;;;;10.75;8.30;;;;;;;;;;5054572;28;25076;-72
2023/06/11 04:00:31;;;;;;;11.10;8.55;;;;;;;;;;5059334;28;25073;-72
2023/06/11 04:02:59;;;;;;;11.75;8.05;;;;;;;;;;5059206;28;25078;-70
2023/06/11 04:05:25;;;;;;;12.52;8.02;;;;;;;;;;5058859;28;25059;-71
2023/06/11 04:07:51;;;;;;;10.93;8.50;;;;;;;;;;5057475;28;25072;-71
2023/06/11 04:10:17;;;;;;;11.60;7.53;;;;;;;;;;5061397;28;25062;-70
2023/06/11 04:12:43;;;;;;;14.05;8.25;;;;;;;;;;5054821;28;25071;-69
2023/06/11 04:15:09;;;;;;;14.43;9.05;;;;;;;;;;5058640;28;25092;-72
2023/06/11 04:17:35;;;;;;;14.93;9.35;;;;;;;;;;5058538;28;25075;-71
2023/06/11 04:20:02;;;;;;;14.07;9.05;;;;;;;;;;5055046;28;25083;-74
2023/06/11 04:22:28;;;;;;;10.23;8.48;;;;;;;;;;5054705;28;25075;-72
2023/06/11 04:24:54;;;;;;;14.95;9.50;;;;;;;;;;5056636;28;25066;-70
2023/06/11 04:27:20;;;;;;;13.75;9.00;;;;;;;;;;5056702;28;25101;-72
2023/06/11 04:29:48;;;;;;;12.30;10.27;;;;;;;;;;5058380;28;25052;-71
2023/06/11 04:32:16;;;;;;;14.82;10.07;;;;;;;;;;5044819;28;25048;-71
2023/06/11 04:34:43;;;;;;;14.80;9.30;;;;;;;;;;5058334;28;25058;-71
2023/06/11 04:37:09;;;;;;;12.65;9.23;;;;;;;;;;5057593;28;25068;-71
2023/06/11 04:39:35;;;;;;;12.15;9.43;;;;;;;;;;5056719;28;25069;-72
2023/06/11 04:42:02;;;;;;;11.98;9.50;;;;;;;;;;5061128;28;25066;-71
2023/06/11 04:44:29;;;;;;;11.90;9.23;;;;;;;;;;5060036;28;25088;-73
2023/06/11 04:46:57;;;;;;;11.52;8.73;;;;;;;;;;5058944;28;25071;-71
2023/06/11 04:49:23;;;;;;;15.10;9.50;;;;;;;;;;5060774;28;25082;-70
2023/06/11 04:51:52;;;;;;;15.27;10.07;;;;;;;;;;5060248;28;25117;-72
2023/06/11 04:54:21;;;;;;;12.80;8.98;;;;;;;;;;5030662;28;25185;-73
2023/06/11 04:56:47;;;;;;;13.27;9.48;;;;;;;;;;5060550;28;25052;-72
2023/06/11 04:59:13;;;;;;;12.25;9.77;;;;;;;;;;5059955;28;25071;-74
2023/06/11 05:01:46;;;;;;;15.98;9.93;;;;;;;;;;5066546;28;25050;-73
2023/06/11 05:04:12;;;;;;;15.82;9.63;;;;;;;;;;5061772;28;25057;-72
2023/06/11 05:06:44;;;;;;;14.75;9.25;;;;;;;;;;5058400;28;25077;-73
2023/06/11 05:09:11;;;;;;;15.43;9.57;;;;;;;;;;5059842;28;25144;-74
2023/06/11 05:11:37;;;;;;;13.82;10.02;;;;;;;;;;5060552;28;25059;-72
2023/06/11 05:14:03;;;;;;;13.13;9.73;;;;;;;;;;5058011;28;25046;-74
2023/06/11 05:16:29;;;;;;;13.27;9.50;;;;;;;;;;5061328;28;25063;-74
2023/06/11 05:18:55;;;;;;;12.48;9.48;;;;;;;;;;5063691;28;25093;-73
2023/06/11 05:21:21;;;;;;;13.52;9.10;;;;;;;;;;5060078;28;25145;-72
2023/06/11 05:23:47;;;;;;;15.65;10.90;;;;;;;;;;5058968;28;25149;-73
2023/06/11 05:26:13;;;;;;;14.57;9.85;;;;;;;;;;5060899;28;25073;-74
2023/06/11 05:28:40;;;;;;;12.85;9.48;;;;;;;;;;5060435;28;25139;-73
2023/06/11 05:31:09;;;;;;;16.00;11.00;;;;;;;;;;5059173;28;25059;-75
2023/06/11 05:33:36;;;;;;;11.52;9.02;;;;;;;;;;5045299;28;25105;-76
2023/06/11 05:36:02;;;;;;;11.55;9.68;;;;;;;;;;5060611;28;25110;-74
2023/06/11 05:38:28;;;;;;;14.18;9.82;;;;;;;;;;5058268;28;25083;-74
2023/06/11 05:40:54;;;;;;;17.98;10.00;;;;;;;;;;5060403;28;25058;-73
2023/06/11 05:43:20;;;;;;;14.75;10.73;;;;;;;;;;5056814;28;25056;-73
2023/06/11 05:45:48;;;;;;;14.30;10.40;;;;;;;;;;5059849;28;25055;-72
2023/06/11 05:48:14;;;;;;;13.90;10.25;;;;;;;;;;5060012;28;25155;-73
2023/06/11 05:50:40;;;;;;;12.73;10.18;;;;;;;;;;5058546;28;25107;-72
2023/06/11 05:53:08;;;;;;;12.93;10.02;;;;;;;;;;5055365;28;25093;-72
2023/06/11 05:55:34;;;;;;;14.27;10.02;;;;;;;;;;5060339;28;25058;-72
2023/06/11 05:58:00;;;;;;;14.02;10.13;;;;;;;;;;5058177;28;25088;-73
2023/06/11 06:00:26;;;;;;;16.08;10.23;;;;;;;;;;5059718;28;25059;-73
2023/06/11 06:02:52;;;;;;;13.80;9.68;;;;;;;;;;5057486;28;25056;-73
2023/06/11 06:05:19;;;;;;;13.35;10.40;;;;;;;;;;5060197;28;25055;-76
2023/06/11 06:07:45;;;;;;;13.27;10.38;;;;;;;;;;5059781;28;25045;-73
2023/06/11 06:10:11;;;;;;;12.85;11.45;;;;;;;;;;5059884;28;25064;-72
2023/06/11 06:12:37;;;;;;;13.05;10.40;;;;;;;;;;5058701;28;25090;-71
2023/06/11 06:15:03;;;;;;;15.25;11.75;;;;;;;;;;5057898;28;25085;-74
2023/06/11 06:17:29;;;;;;;14.90;10.90;;;;;;;;;;5057767;28;25091;-73
2023/06/11 06:19:55;;;;;;;12.43;10.30;;;;;;;;;;5044995;28;25104;-75
2023/06/11 06:22:21;;;;;;;13.23;11.40;;;;;;;;;;5058584;28;25785;-74
2023/06/11 06:24:47;;;;;;;15.13;11.27;;;;;;;;;;5058702;28;25078;-71
2023/06/11 06:27:13;;;;;;;13.25;10.95;;;;;;;;;;5058572;28;25138;-71
2023/06/11 06:29:39;;;;;;;13.57;9.98;;;;;;;;;;5058517;28;25142;-73
2023/06/11 06:32:06;;;;;;;13.50;10.35;;;;;;;;;;5055450;28;25125;-74
2023/06/11 06:34:32;;;;;;;13.90;10.65;;;;;;;;;;5059420;28;25060;-72
2023/06/11 06:36:58;;;;;;;14.13;10.80;;;;;;;;;;5059974;28;25047;-71
2023/06/11 06:39:24;;;;;;;12.75;10.18;;;;;;;;;;5056957;28;25070;-73
2023/06/11 06:41:50;;;;;;;14.88;10.25;;;;;;;;;;5058561;28;25177;-72
2023/06/11 06:44:16;;;;;;;21.98;10.70;;;;;;;;;;5056230;28;25179;-73
2023/06/11 06:46:42;;;;;;;14.40;11.65;;;;;;;;;;5057736;28;25108;-72
2023/06/11 06:49:08;;;;;;;12.68;9.82;;;;;;;;;;5060551;28;25096;-74
2023/06/11 06:51:35;;;;;;;17.05;10.63;;;;;;;;;;5062703;28;25269;-73
2023/06/11 06:54:01;;;;;;;14.02;11.10;;;;;;;;;;5056387;28;25136;-73
2023/06/11 06:56:27;;;;;;;15.07;10.70;;;;;;;;;;5057911;28;25049;-72
2023/06/11 06:58:53;;;;;;;16.42;10.50;;;;;;;;;;5056744;28;25087;-74
2023/06/11 07:01:19;;;;;;;13.20;10.48;;;;;;;;;;5055068;28;25139;-73
2023/06/11 07:03:45;;;;;;;14.20;10.40;;;;;;;;;;5057654;28;25089;-73
2023/06/11 07:06:11;;;;;;;14.25;9.68;;;;;;;;;;5054419;28;25074;-73
2023/06/11 07:08:41;;;;;;;11.40;10.00;;;;;;;;;;5056496;28;25106;-72
2023/06/11 07:11:07;;;;;;;15.07;10.45;;;;;;;;;;5056736;28;25079;-73
2023/06/11 07:13:33;;;;;;;16.23;11.93;;;;;;;;;;5055286;28;25080;-73
2023/06/11 07:15:58;;;;;;;14.30;10.40;;;;;;;;;;5045547;28;25088;-73
2023/06/11 07:18:26;;;;;;;13.30;10.88;;;;;;;;;;5056776;28;25060;-73
2023/06/11 07:20:52;;;;;;;17.38;10.73;;;;;;;;;;5058079;28;25058;-72
2023/06/11 07:23:18;;;;;;;14.82;11.07;;;;;;;;;;5056960;28;25060;-73
2023/06/11 07:25:45;;;;;;;15.18;11.68;;;;;;;;;;5057377;28;25066;-71
2023/06/11 07:28:11;;;;;;;14.43;10.95;;;;;;;;;;5055621;28;25068;-73
2023/06/11 07:30:37;;;;;;;15.82;10.55;;;;;;;;;;5056802;28;25145;-73
2023/06/11 07:33:03;;;;;;;13.02;10.07;;;;;;;;;;5054396;28;25096;-72
2023/06/11 07:35:29;;;;;;;17.85;10.68;;;;;;;;;;5057613;28;25089;-71
2023/06/11 07:37:55;;;;;;;11.75;9.45;;;;;;;;;;5057841;28;25077;-70
2023/06/11 07:40:21;;;;;;;14.02;10.23;;;;;;;;;;5055733;28;25153;-71
2023/06/11 07:42:48;;;;;;;14.68;8.65;;;;;;;;;;5054637;28;25085;-72
2023/06/11 07:45:14;;;;;;;11.82;9.63;;;;;;;;;;5055474;28;25063;-71
2023/06/11 07:47:41;;;;;;;12.50;10.13;;;;;;;;;;5056835;28;25061;-72
2023/06/11 07:50:08;;;;;;;16.05;9.38;;;;;;;;;;5057036;28;25050;-72
2023/06/11 07:52:34;;;;;;;14.05;9.73;;;;;;;;;;5054578;28;25063;-71
2023/06/11 07:55:00;;;;;;;11.40;9.13;;;;;;;;;;5056963;28;25148;-72
2023/06/11 07:57:26;;;;;;;12.52;9.75;;;;;;;;;;5059465;28;25075;-73
2023/06/11 07:59:53;;;;;;;15.23;9.60;;;;;;;;;;5045303;28;25092;-73
2023/06/11 08:02:19;;;;;;;11.43;10.05;;;;;;;;;;5057730;28;25053;-73
2023/06/11 08:04:45;;;;;;;11.02;8.82;;;;;;;;;;5060081;28;25067;-73
2023/06/11 08:07:12;;;;;;;12.40;9.48;;;;;;;;;;5058039;28;25055;-73
2023/06/11 08:09:38;;;;;;;12.15;9.07;;;;;;;;;;5059447;28;25077;-70
2023/06/11 08:12:05;;;;;;;10.07;8.23;;;;;;;;;;5055164;28;25076;-73
2023/06/11 08:14:32;;;;;;;10.70;8.85;;;;;;;;;;5057128;28;25089;-72
2023/06/11 08:16:58;;;;;;;9.77;8.68;;;;;;;;;;5064380;28;24896;-72
2023/06/11 08:19:24;;;;;;;12.35;8.60;;;;;;;;;;5059191;28;25119;-73
2023/06/11 08:21:50;;;;;;;11.73;9.13;;;;;;;;;;5061206;28;25076;-73
2023/06/11 08:24:18;;;;;;;11.25;10.02;;;;;;;;;;5059558;28;25065;-73
2023/06/11 08:26:44;;;;;;;11.60;9.52;;;;;;;;;;5061471;28;25083;-75
2023/06/11 08:29:10;;;;;;;13.45;9.07;;;;;;;;;;5056993;28;25158;-73
2023/06/11 08:31:36;;;;;;;12.18;9.00;;;;;;;;;;5062116;28;25083;-73
2023/06/11 08:34:02;;;;;;;9.73;8.73;;;;;;;;;;5060541;28;25076;-73
2023/06/11 08:36:28;;;;;;;13.20;8.40;;;;;;;;;;5061678;28;25061;-73
2023/06/11 08:38:54;;;;;;;11.98;9.27;;;;;;;;;;5058813;28;25060;-73
2023/06/11 08:41:20;;;;;;;10.80;8.40;;;;;;;;;;5059472;28;25084;-73
2023/06/11 08:43:46;;;;;;;10.25;8.60;;;;;;;;;;5063081;28;25055;-74
2023/06/11 08:46:16;;;;;;;12.07;8.75;;;;;;;;;;5060380;28;25178;-74
2023/06/11 08:48:43;;;;;;;10.73;8.10;;;;;;;;;;5063329;28;25051;-72
2023/06/11 08:51:12;;;;;;;9.45;7.38;;;;;;;;;;5063562;28;25072;-73
2023/06/11 08:53:39;;;;;;;9.43;7.90;;;;;;;;;;5058300;28;24845;-73
2023/06/11 08:56:06;;;;;;;10.50;6.80;;;;;;;;;;5059590;28;25056;-71
2023/06/11 08:58:33;;;;;;;10.88;8.15;;;;;;;;;;5060735;28;25093;-73
2023/06/11 09:00:59;;;;;;;11.65;8.85;;;;;;;;;;5061098;28;25139;-73
2023/06/11 09:03:25;;;;;;;10.52;8.65;;;;;;;;;;5054922;28;25166;-73
2023/06/11 09:05:51;;;;;;;9.73;8.63;;;;;;;;;;5061799;28;25105;-71
2023/06/11 09:08:17;;;;;;;11.85;8.32;;;;;;;;;;5058019;28;25065;-72
2023/06/11 09:10:49;;;;;;;12.82;8.43;;;;;;;;;;5062193;28;25075;-71
2023/06/11 09:13:17;;;;;;;10.32;7.65;;;;;;;;;;5058583;28;25052;-72
2023/06/11 09:15:49;;;;;;;9.77;7.90;;;;;;;;;;5060635;28;25049;-74
2023/06/11 09:18:22;;;;;;;13.75;8.18;;;;;;;;;;5060058;28;25058;-71
2023/06/11 09:20:54;;;;;;;14.77;9.05;;;;;;;;;;5062517;28;25054;-71
2023/06/11 09:23:30;;;;;;;15.27;7.30;;;;;;;;;;5056971;28;25114;-72
2023/06/11 09:25:56;;;;;;;10.30;7.65;;;;;;;;;;5063043;28;25061;-73
2023/06/11 09:28:29;;;;;;;8.18;7.38;;;;;;;;;;5065631;28;25057;-73
2023/06/11 09:30:55;;;;;;;9.45;8.40;;;;;;;;;;5047712;28;25154;-73
2023/06/11 09:33:21;;;;;;;7.70;6.93;;;;;;;;;;5058610;28;25110;-72
2023/06/11 09:35:48;;;;;;;10.70;9.30;;;;;;;;;;5060388;28;25089;-72
2023/06/11 09:38:18;;;;;;;10.70;8.57;;;;;;;;;;5057941;28;25067;-77
2023/06/11 09:40:51;;;;;;;14.68;8.60;;;;;;;;;;5060796;28;25067;-71
2023/06/11 09:43:27;;;;;;;13.13;8.45;;;;;;;;;;5058507;28;25073;-73
2023/06/11 09:45:55;;;;;;;9.70;7.60;;;;;;;;;;5061441;28;25118;-72
2023/06/11 09:48:24;;;;;;;12.65;7.35;;;;;;;;;;5058844;28;25181;-72
2023/06/11 09:50:51;;;;;;;10.90;8.15;;;;;;;;;;5056567;28;25067;-72
2023/06/11 09:53:20;;;;;;;12.63;7.53;;;;;;;;;;5054484;28;25059;-73
2023/06/11 09:55:50;;;;;;;11.07;7.90;;;;;;;;;;5059985;28;25137;-72
2023/06/11 09:58:22;;;;;;;9.55;7.78;;;;;;;;;;5057470;28;25152;-75
2023/06/11 10:00:58;;;;;;;9.30;7.63;;;;;;;;;;5058165;28;25101;-72
2023/06/11 10:03:24;;;;;;;7.80;6.63;;;;;;;;;;5053156;28;25083;-73
2023/06/11 10:05:50;;;;;;;11.20;7.88;;;;;;;;;;5045322;28;25074;-75
2023/06/11 10:08:29;;;;;;;9.43;7.53;;;;;;;;;;5054077;28;25098;-72
2023/06/11 10:10:56;;;;;;;7.63;6.82;;;;;;;;;;5058703;28;25052;-73
2023/06/11 10:13:31;;;;;;;9.52;7.80;;;;;;;;;;5056611;28;25070;-75
2023/06/11 10:16:07;;;;;;;9.48;7.43;;;;;;;;;;5057878;28;25101;-72
2023/06/11 10:18:33;;;;;;;7.78;6.40;;;;;;;;;;5054597;28;25059;-73
2023/06/11 10:21:03;;;;;;;8.35;6.45;;;;;;;;;;5055063;28;25055;-72
2023/06/11 10:23:36;;;;;;;6.78;6.18;;;;;;;;;;5059102;28;25146;-73
2023/06/11 10:26:02;;;;;;;7.65;5.88;;;;;;;;;;5057774;28;25070;-73
2023/06/11 10:28:38;;;;;;;8.30;6.60;;;;;;;;;;5055099;28;25173;-73
2023/06/11 10:31:05;;;;;;;6.10;5.50;;;;;;;;;;5060024;28;25084;-73
2023/06/11 10:33:42;;;;;;;7.65;5.70;;;;;;;;;;5057727;28;25110;-75
2023/06/11 10:36:08;;;;;;;6.80;6.10;;;;;;;;;;5058010;28;25136;-70
2023/06/11 10:38:38;;;;;;;6.78;5.50;;;;;;;;;;5056663;28;25075;-73
2023/06/11 10:41:04;;;;;;;6.38;5.53;;;;;;;;;;5060237;28;25078;-73
2023/06/11 10:43:34;;;;;;;7.50;5.95;;;;;;;;;;5056670;28;25076;-73
2023/06/11 10:46:01;;;;;;;9.98;6.20;;;;;;;;;;5058767;28;25050;-72
2023/06/11 10:48:28;;;;;;;6.28;5.50;;;;;;;;;;5058476;28;25072;-73
2023/06/11 10:51:00;;;;;;;8.18;5.75;;;;;;;;;;5061080;28;25070;-72
2023/06/11 10:53:35;;;;;;;8.60;5.15;;;;;;;;;;5057195;28;25092;-74
2023/06/11 10:56:02;;;;;;;6.18;5.20;;;;;;;;;;5058490;28;25051;-73
2023/06/11 10:58:29;;;;;;;8.43;5.30;;;;;;;;;;5059974;28;25111;-73
2023/06/11 11:00:56;;;;;;;6.05;5.32;;;;;;;;;;5062261;28;25045;-72
2023/06/11 11:03:22;;;;;;;6.65;5.18;;;;;;;;;;5057353;28;25060;-73
2023/06/11 11:05:51;;;;;;;6.03;5.35;;;;;;;;;;5061094;28;25063;-73
2023/06/11 11:08:17;;;;;;;7.75;5.05;;;;;;;;;;5058862;28;25169;-72
2023/06/11 11:10:43;;;;;;;7.95;5.30;;;;;;;;;;5049016;28;25104;-72
2023/06/11 11:13:09;;;;;;;8.13;5.10;;;;;;;;;;5058663;28;25072;-74
2023/06/11 11:15:36;;;;;;;7.60;5.75;;;;;;;;;;5059562;28;25061;-70
2023/06/11 11:18:03;;;;;;;6.57;5.32;;;;;;;;;;5064122;28;25068;-73
2023/06/11 11:20:32;;;;;;;6.45;4.88;;;;;;;;;;5060655;28;25115;-75
2023/06/11 11:22:59;;;;;;;6.47;5.18;;;;;;;;;;5063677;28;25056;-71
2023/06/11 11:25:27;;;;;;;6.10;4.28;;;;;;;;;;5064118;28;25095;-72
2023/06/11 11:27:54;;;;;;;5.70;4.93;;;;;;;;;;5061807;28;25096;-74
2023/06/11 11:30:20;;;;;;;6.03;5.45;;;;;;;;;;5061784;28;25144;-73
2023/06/11 11:32:46;;;;;;;5.22;4.72;;;;;;;;;;5061158;28;25073;-73
2023/06/11 11:35:16;;;;;;;5.82;5.28;;;;;;;;;;5060155;28;25085;-72
2023/06/11 11:37:45;;;;;;;4.88;4.35;;;;;;;;;;5059545;28;25066;-72
2023/06/11 11:40:11;;;;;;;6.93;4.63;;;;;;;;;;5061884;28;25072;-72
2023/06/11 11:42:49;;;;;;;5.28;4.50;;;;;;;;;;5062717;28;25197;-73
2023/06/11 11:45:15;;;;;;;6.03;4.90;;;;;;;;;;5044156;28;25085;-73
2023/06/11 11:47:42;;;;;;;7.40;5.28;;;;;;;;;;5060216;28;25097;-72
2023/06/11 11:50:17;;;;;;;4.88;4.40;;;;;;;;;;5059677;28;25136;-73
2023/06/11 11:52:45;;;;;;;7.90;5.28;;;;;;;;;;5058884;28;25156;-73
2023/06/11 11:55:11;;;;;;;5.05;4.57;;;;;;;;;;5062968;28;25075;-73
2023/06/11 11:57:42;;;;;;;6.15;4.63;;;;;;;;;;5047474;28;25074;-73
2023/06/11 12:00:09;;;;;;;5.10;4.60;;;;;;;;;;5043806;28;25047;-74
2023/06/11 12:02:41;;;;;;;4.47;4.07;;;;;;;;;;5059583;28;25056;-72
2023/06/11 12:05:07;;;;;;;7.45;4.80;;;;;;;;;;5063167;28;25144;-74
2023/06/11 12:07:33;;;;;;;4.72;4.32;;;;;;;;;;5058679;28;25060;-74
2023/06/11 12:09:59;;;;;;;6.93;4.75;;;;;;;;;;5053285;28;25046;-73
2023/06/11 12:12:25;;;;;;;4.90;4.40;;;;;;;;;;5049959;28;25089;-72
2023/06/11 12:14:51;;;;;;;4.45;4.10;;;;;;;;;;5053207;28;25121;-72
2023/06/11 12:17:17;;;;;;;9.60;5.47;;;;;;;;;;5050535;28;25122;-73
2023/06/11 12:19:43;;;;;;;7.05;5.05;;;;;;;;;;5054466;28;25077;-73
2023/06/11 12:22:10;;;;;;;6.50;4.90;;;;;;;;;;5050075;28;25059;-71
2023/06/11 12:24:36;;;;;;;5.40;4.75;;;;;;;;;;5053435;28;25139;-72
2023/06/11 12:27:02;;;;;;;6.63;5.38;;;;;;;;;;5050930;28;25071;-72
2023/06/11 12:29:28;;;;;;;8.55;4.43;;;;;;;;;;5053971;28;25494;-72
2023/06/11 12:31:54;;;;;;;7.45;5.45;;;;;;;;;;5055513;28;25063;-71
2023/06/11 12:34:20;;;;;;;7.72;5.38;;;;;;;;;;5053786;28;25092;-72
2023/06/11 12:36:46;;;;;;;7.18;5.22;;;;;;;;;;5057469;28;25101;-71
2023/06/11 12:39:13;;;;;;;6.40;4.97;;;;;;;;;;5052031;28;25088;-73
2023/06/11 12:41:40;;;;;;;6.30;5.03;;;;;;;;;;5051529;28;25080;-72
2023/06/11 12:44:06;;;;;;;5.35;4.85;;;;;;;;;;5050934;28;25081;-75
2023/06/11 12:46:32;;;;;;;6.20;4.38;;;;;;;;;;5055418;28;25087;-71
2023/06/11 12:48:57;;;;;;;7.95;4.65;;;;;;;;;;5054080;28;25064;-72
2023/06/11 12:51:23;;;;;;;7.68;4.97;;;;;;;;;;5052131;28;25075;-72
2023/06/11 12:53:52;;;;;;;5.03;4.53;;;;;;;;;;5052022;28;25149;-72
2023/06/11 12:56:18;;;;;;;6.28;4.85;;;;;;;;;;5052460;28;25053;-72
2023/06/11 12:58:44;;;;;;;6.82;4.22;;;;;;;;;;5052764;28;25047;-71
2023/06/11 13:01:10;;;;;;;5.82;4.75;;;;;;;;;;5054836;28;25070;-71
2023/06/11 13:03:36;;;;;;;9.20;4.95;;;;;;;;;;5054938;28;25079;-69
2023/06/11 13:06:02;;;;;;;9.20;4.35;;;;;;;;;;5058520;28;25070;-74
2023/06/11 13:08:29;;;;;;;5.72;4.50;;;;;;;;;;5040747;28;25057;-70
2023/06/11 13:10:58;;;;;;;5.75;4.53;;;;;;;;;;5058819;28;25150;-72
2023/06/11 13:13:24;;;;;;;9.93;4.85;;;;;;;;;;5055674;28;25097;-72
2023/06/11 13:15:50;;;;;;;6.45;4.68;;;;;;;;;;5057337;28;25104;-72
2023/06/11 13:18:16;;;;;;;6.72;4.72;;;;;;;;;;5056973;28;25055;-73
2023/06/11 13:20:42;;;;;;;11.95;4.35;;;;;;;;;;5059061;28;25062;-71
2023/06/11 13:23:08;;;;;;;4.90;3.88;;;;;;;;;;5055154;28;25149;-72
2023/06/11 13:25:36;;;;;;;4.50;3.50;;;;;;;;;;5057696;28;25133;-71
2023/06/11 13:28:02;;;;;;;4.55;3.97;;;;;;;;;;5058507;28;25067;-72
2023/06/11 13:30:28;;;;;;;4.20;3.78;;;;;;;;;;5060276;28;25057;-71
2023/06/11 13:32:54;;;;;;;3.70;3.40;;;;;;;;;;5058102;28;25075;-74
2023/06/11 13:35:20;;;;;;;6.75;3.63;;;;;;;;;;5053738;28;25062;-71
2023/06/11 13:37:46;;;;;;;3.70;3.40;;;;;;;;;;5054408;28;25065;-73
2023/06/11 13:40:12;;;;;;;9.18;3.35;;;;;;;;;;5057441;28;25060;-70
2023/06/11 13:42:38;;;;;;;9.30;3.72;;;;;;;;;;5055968;28;25077;-72
2023/06/11 13:45:05;;;;;;;3.97;3.30;;;;;;;;;;5059692;28;25068;-70
2023/06/11 13:47:31;;;;;;;5.82;4.32;;;;;;;;;;5057028;28;25156;-72
2023/06/11 13:49:57;;;;;;;4.97;3.70;;;;;;;;;;5058622;28;25070;-72
2023/06/11 13:52:24;;;;;;;5.63;3.47;;;;;;;;;;5052853;28;25148;-70
2023/06/11 13:54:50;;;;;;;3.92;3.33;;;;;;;;;;5057137;28;25061;-74
2023/06/11 13:57:16;;;;;;;3.83;3.10;;;;;;;;;;5056510;28;25147;-71
2023/06/11 13:59:42;;;;;;;4.93;3.58;;;;;;;;;;5057012;28;25148;-72
2023/06/11 14:02:08;;;;;;;4.53;3.30;;;;;;;;;;5054591;28;25057;-72
2023/06/11 14:04:34;;;;;;;4.82;3.40;;;;;;;;;;5055592;28;25070;-71
2023/06/11 14:07:01;;;;;;;4.53;3.70;;;;;;;;;;5059823;28;25104;-71
2023/06/11 14:09:27;;;;;;;6.55;3.42;;;;;;;;;;5059382;28;25070;-74
2023/06/11 14:11:53;;;;;;;5.75;3.50;;;;;;;;;;5058498;28;25136;-72
2023/06/11 14:14:19;;;;;;;3.65;3.17;;;;;;;;;;5054862;28;25063;-71
2023/06/11 14:16:45;;;;;;;3.85;3.55;;;;;;;;;;5060859;28;25045;-73
2023/06/11 14:19:11;;;;;;;5.45;4.03;;;;;;;;;;5057322;28;25075;-72
2023/06/11 14:21:37;;;;;;;8.90;3.85;;;;;;;;;;5058653;28;25081;-73
2023/06/11 14:24:03;;;;;;;6.00;3.80;;;;;;;;;;5056575;28;25087;-73
2023/06/11 14:26:30;;;;;;;6.72;3.78;;;;;;;;;;5056568;28;25057;-72
2023/06/11 14:28:56;;;;;;;7.75;4.07;;;;;;;;;;5055302;28;25082;-72
2023/06/11 14:31:22;;;;;;;4.30;3.80;;;;;;;;;;5057130;28;25129;-73